This is the latest recevied weather packets stored in our database for station/object KD9IXX-13. If no packets are shown the sender has not sent any weather packets the latest 10 day(s).
| Time | Temp. | Humidity | Pressure | Rain* | Wind** | Luminosity | Snow |
|---|---|---|---|---|---|---|---|
| 1787926802 | 23.33° C | 74% | 1022.8 hPa | 0 mm | - | 488 W/m² | - |
| 1787926502 | 23.33° C | 72% | 1022.8 hPa | 0 mm | - | 491 W/m² | - |
| 1787926202 | 23.33° C | 71% | 1022.6 hPa | 0 mm | - | 469 W/m² | - |
| 1787925002 | 22.78° C | 75% | 1022.6 hPa | 0 mm | - | 302 W/m² | - |
| 1787924702 | 22.22° C | 79% | 1022.8 hPa | 0 mm | - | 348 W/m² | - |
| 1787924402 | 22.22° C | 77% | 1023 hPa | 0 mm | - | 327 W/m² | - |
| 1787923502 | 21.11° C | 79% | 1022.7 hPa | 0 mm | - | 256 W/m² | - |
| 1787923203 | 21.11° C | 80% | 1022.9 hPa | 0 mm | - | 248 W/m² | - |
| 1787922902 | 20.56° C | 82% | 1022.7 hPa | 0 mm | - | 119 W/m² | - |
| 1787922002 | 20° C | 85% | 1022.8 hPa | 0 mm | - | 211 W/m² | - |
| 1787920802 | 17.78° C | 94% | 1022.6 hPa | 0 mm | - | 84 W/m² | - |
| 1787920202 | 17.22° C | 95% | 1022.6 hPa | 0 mm | - | 60 W/m² | - |
| 1787919601 | 17.22° C | 94% | 1022.5 hPa | 0 mm | - | 39 W/m² | - |
| 1787919302 | 17.22° C | 94% | 1022.3 hPa | 0 mm | - | 34 W/m² | - |
| 1787918702 | 17.22° C | 94% | 1022.1 hPa | 0 mm | - | 29 W/m² | - |
| 1787918103 | 17.22° C | 95% | 1022.2 hPa | 0 mm | - | 25 W/m² | - |
| 1787917503 | 17.22° C | 95% | 1022.1 hPa | 0 mm | - | 22 W/m² | - |
| 1787916002 | 17.22° C | 91% | 1021.7 hPa | 0 mm | - | 4 W/m² | - |
| 1787915402 | 17.22° C | 91% | 1021.4 hPa | 0 mm | - | 0 W/m² | - |
| 1787915102 | 17.22° C | 92% | 1021.1 hPa | 0 mm | - | 0 W/m² | - |
| 1787914502 | 16.67° C | 93% | 1021.2 hPa | 0 mm | - | 0 W/m² | - |
| 1787913602 | 17.22° C | 91% | 1021.4 hPa | 0 mm | - | 0 W/m² | - |
| 1787913302 | 17.22° C | 91% | 1021.2 hPa | 0 mm | - | 0 W/m² | - |
| 1787913002 | 17.78° C | 90% | 1021.2 hPa | 0 mm | - | 0 W/m² | - |
| 1787911802 | 18.33° C | 88% | 1020.9 hPa | 0 mm | - | 0 W/m² | - |
* Rain latest hour (hover to see other rain measurements)
** Current wind speed in m/s (hover to see current wind gust speed)